createdAt,value
2022-12-22T00:02:35.852Z,61.83
2022-12-22T00:05:22.370Z,63.27
2022-12-22T00:08:09.792Z,67.27
2022-12-22T00:10:55.665Z,62.60
2022-12-22T00:13:41.732Z,66.37
2022-12-22T00:16:27.639Z,69.57
2022-12-22T00:19:13.811Z,62.17
2022-12-22T00:21:59.926Z,64.33
2022-12-22T00:24:47.218Z,64.27
2022-12-22T00:27:33.885Z,66.90
2022-12-22T00:30:19.605Z,64.30
2022-12-22T00:33:05.664Z,70.10
2022-12-22T00:35:52.029Z,63.43
2022-12-22T00:38:38.195Z,64.43
2022-12-22T00:41:25.582Z,73.00
2022-12-22T00:44:11.786Z,66.67
2022-12-22T00:46:58.297Z,66.27
2022-12-22T00:49:44.494Z,68.63
2022-12-22T00:52:30.591Z,72.03
2022-12-22T00:55:17.023Z,70.70
2022-12-22T00:58:04.325Z,65.30
2022-12-22T01:00:53.597Z,65.40
2022-12-22T01:03:39.693Z,66.00
2022-12-22T01:06:25.953Z,66.67
2022-12-22T01:09:11.843Z,67.53
2022-12-22T01:11:57.829Z,71.20
2022-12-22T01:14:45.085Z,70.93
2022-12-22T01:17:31.237Z,71.97
2022-12-22T01:20:17.407Z,65.37
2022-12-22T01:23:03.430Z,68.70
2022-12-22T01:25:49.517Z,68.53
2022-12-22T01:28:35.964Z,72.50
2022-12-22T01:31:28.696Z,76.10
2022-12-22T01:34:14.774Z,76.50
2022-12-22T01:37:01.006Z,81.07
2022-12-22T01:39:46.919Z,80.03
2022-12-22T01:42:32.731Z,74.07
2022-12-22T01:45:20.036Z,82.03
2022-12-22T01:48:08.187Z,72.70
2022-12-22T01:50:54.170Z,73.83
2022-12-22T01:53:40.457Z,79.30
2022-12-22T01:56:26.710Z,82.00
2022-12-22T01:59:14.311Z,78.30
2022-12-22T02:02:00.382Z,78.80
2022-12-22T02:04:50.419Z,81.00
2022-12-22T02:07:39.401Z,85.93
2022-12-22T02:10:28.482Z,82.67
2022-12-22T02:13:17.026Z,87.43
2022-12-22T02:16:05.327Z,79.73
2022-12-22T02:18:51.348Z,76.77
2022-12-22T02:21:39.760Z,80.70
2022-12-22T02:24:28.360Z,78.63
2022-12-22T02:27:16.079Z,81.97
2022-12-22T02:30:02.640Z,86.83
2022-12-22T02:32:52.164Z,81.27
2022-12-22T02:35:38.252Z,84.87
2022-12-22T02:38:26.491Z,86.40
2022-12-22T02:41:14.784Z,84.40
2022-12-22T02:44:06.446Z,83.57
2022-12-22T02:46:57.195Z,81.57
2022-12-22T02:49:43.907Z,80.97
2022-12-22T02:52:32.133Z,80.97
2022-12-22T02:55:17.998Z,80.13
2022-12-22T02:58:04.028Z,84.33
2022-12-22T03:00:51.541Z,83.67
2022-12-22T03:03:37.903Z,90.60
2022-12-22T03:06:24.304Z,91.07
2022-12-22T03:09:10.355Z,78.87
2022-12-22T03:11:56.358Z,75.90
2022-12-22T03:14:42.483Z,80.90
2022-12-22T03:17:29.995Z,78.37
2022-12-22T03:20:16.134Z,75.73
2022-12-22T03:23:02.353Z,84.70
2022-12-22T03:25:48.429Z,78.57
2022-12-22T03:28:16.790Z,78.03
2022-12-22T03:30:45.251Z,79.13
2022-12-22T03:33:15.018Z,80.10
2022-12-22T03:35:43.487Z,77.90
2022-12-22T03:38:14.743Z,77.87
2022-12-22T03:40:44.606Z,75.63
2022-12-22T03:43:31.263Z,78.60
2022-12-22T03:46:17.383Z,89.37
2022-12-22T03:49:07.560Z,83.00
2022-12-22T03:51:36.039Z,79.87
2022-12-22T03:54:04.416Z,80.53
2022-12-22T03:56:32.831Z,80.20
2022-12-22T03:59:01.185Z,83.50
2022-12-22T04:01:29.920Z,89.03
2022-12-22T04:03:59.745Z,76.63
2022-12-22T04:06:28.093Z,74.80
2022-12-22T04:08:56.466Z,75.40
2022-12-22T04:11:42.341Z,69.87
2022-12-22T04:14:10.680Z,69.20
2022-12-22T04:16:39.059Z,68.63
2022-12-22T04:19:10.487Z,71.57
2022-12-22T04:21:39.000Z,67.77
2022-12-22T04:24:07.882Z,88.33
2022-12-22T04:26:36.255Z,88.57
2022-12-22T04:29:04.695Z,88.23
2022-12-22T04:31:34.273Z,90.30
2022-12-22T04:34:02.698Z,123.50
2022-12-22T04:36:32.372Z,122.33
2022-12-22T04:39:01.043Z,110.73
2022-12-22T04:41:29.484Z,119.47
2022-12-22T04:43:57.907Z,167.57
2022-12-22T04:46:26.534Z,122.03
2022-12-22T04:48:59.978Z,136.27
2022-12-22T04:51:28.884Z,144.53
2022-12-22T04:53:58.669Z,120.27
2022-12-22T04:56:27.081Z,92.33
2022-12-22T04:58:55.470Z,104.27
2022-12-22T05:01:24.023Z,83.13
2022-12-22T05:03:52.673Z,77.27
2022-12-22T05:06:21.180Z,69.37
2022-12-22T05:08:49.539Z,72.10
2022-12-22T05:11:19.379Z,89.70
2022-12-22T05:13:47.752Z,96.20
2022-12-22T05:16:16.999Z,78.70
2022-12-22T05:18:46.069Z,80.00
2022-12-22T05:21:15.002Z,78.97
2022-12-22T05:23:43.384Z,66.03
2022-12-22T05:26:12.016Z,68.13
2022-12-22T05:28:41.754Z,69.07
2022-12-22T05:31:10.607Z,74.67
2022-12-22T05:33:38.974Z,73.83
2022-12-22T05:36:07.638Z,55.43
2022-12-22T05:38:36.002Z,93.40
2022-12-22T05:41:05.023Z,71.50
2022-12-22T05:43:33.554Z,75.17
2022-12-22T05:46:04.810Z,89.30
2022-12-22T05:48:37.851Z,74.90
2022-12-22T05:51:07.411Z,79.40
2022-12-22T05:53:35.994Z,84.23
2022-12-22T05:56:04.508Z,83.20
2022-12-22T05:58:32.981Z,71.57
2022-12-22T06:01:01.574Z,78.23
2022-12-22T06:03:31.642Z,84.37
2022-12-22T06:06:00.618Z,70.23
2022-12-22T06:08:29.001Z,82.87
2022-12-22T06:10:57.432Z,59.80
2022-12-22T06:13:26.075Z,67.17
2022-12-22T06:15:54.431Z,86.47
2022-12-22T06:18:22.907Z,59.93
2022-12-22T06:20:54.442Z,51.90
2022-12-22T06:23:22.938Z,82.10
2022-12-22T06:25:57.414Z,83.47
2022-12-22T06:28:25.964Z,55.47
2022-12-22T06:30:54.573Z,54.00
2022-12-22T06:33:23.263Z,43.50
2022-12-22T06:35:57.930Z,48.87
2022-12-22T06:38:29.240Z,44.80
2022-12-22T06:40:57.616Z,39.27
2022-12-22T06:43:24.980Z,43.10
2022-12-22T06:45:53.530Z,44.40
2022-12-22T06:48:22.099Z,40.23
2022-12-22T06:50:50.453Z,35.67
2022-12-22T06:53:18.897Z,34.30
2022-12-22T06:55:48.707Z,33.57
2022-12-22T06:58:17.198Z,30.07
2022-12-22T07:00:48.656Z,37.73
2022-12-22T07:03:17.684Z,35.00
2022-12-22T07:05:46.124Z,35.67
2022-12-22T07:08:14.558Z,35.03
2022-12-22T07:11:01.217Z,24.77
2022-12-22T07:13:32.710Z,27.57
2022-12-22T07:16:02.109Z,24.67
2022-12-22T07:18:31.177Z,21.73
2022-12-22T07:21:00.787Z,25.50
2022-12-22T07:23:29.215Z,26.20
2022-12-22T07:25:57.648Z,26.03
2022-12-22T07:28:26.087Z,20.30
2022-12-22T07:30:56.015Z,26.43
2022-12-22T07:33:24.481Z,25.17
2022-12-22T07:36:02.537Z,26.10
2022-12-22T07:38:30.945Z,26.77
2022-12-22T07:41:04.981Z,35.20
2022-12-22T07:43:32.990Z,31.60
2022-12-22T07:46:02.877Z,30.40
2022-12-22T07:48:49.065Z,32.57
2022-12-22T07:51:17.446Z,32.83
2022-12-22T07:53:45.992Z,32.47
2022-12-22T07:56:14.513Z,36.90
2022-12-22T07:58:43.792Z,32.60
2022-12-22T08:01:13.844Z,26.83
2022-12-22T08:03:42.442Z,32.93
2022-12-22T08:06:10.933Z,34.07
2022-12-22T08:08:39.302Z,24.97
2022-12-22T08:11:07.925Z,27.90
2022-12-22T08:13:36.399Z,25.77
2022-12-22T08:16:05.709Z,24.70
2022-12-22T08:18:35.628Z,21.63
2022-12-22T08:21:04.602Z,20.97
2022-12-22T08:23:33.596Z,18.10
2022-12-22T08:26:04.026Z,18.87
2022-12-22T08:28:33.513Z,23.50
2022-12-22T08:31:02.156Z,20.43
2022-12-22T08:33:30.695Z,14.47
2022-12-22T08:36:07.456Z,16.47
2022-12-22T08:38:36.709Z,14.67
2022-12-22T08:41:05.431Z,17.20
2022-12-22T08:43:33.890Z,14.90
2022-12-22T08:46:02.297Z,23.33
2022-12-22T08:48:30.685Z,14.57
2022-12-22T08:51:00.548Z,18.87
2022-12-22T08:56:20.874Z,13.77
2022-12-22T08:58:49.391Z,16.57
2022-12-22T09:01:19.077Z,16.40
2022-12-22T09:03:52.370Z,21.00
2022-12-22T09:06:27.312Z,16.43
2022-12-22T09:08:58.860Z,19.23
2022-12-22T09:11:27.373Z,17.77
2022-12-22T09:13:56.748Z,20.77
2022-12-22T09:16:25.830Z,26.73
2022-12-22T09:18:54.376Z,19.83
2022-12-22T09:21:24.590Z,21.23
2022-12-22T09:23:54.322Z,18.03
2022-12-22T09:26:23.258Z,20.70
2022-12-22T09:28:51.935Z,18.17
2022-12-22T09:31:20.466Z,21.77
2022-12-22T09:33:49.000Z,17.03
2022-12-22T09:36:18.600Z,25.27
2022-12-22T09:38:48.517Z,19.90
2022-12-22T09:41:17.581Z,23.53
2022-12-22T09:43:46.112Z,20.27
2022-12-22T09:46:16.495Z,18.47
2022-12-22T09:48:44.949Z,21.50
2022-12-22T09:51:13.496Z,18.63
2022-12-22T09:53:41.944Z,24.63
2022-12-22T09:56:12.975Z,22.70
2022-12-22T09:58:41.752Z,18.80
2022-12-22T10:01:11.355Z,16.33
2022-12-22T10:03:43.061Z,18.83
2022-12-22T10:06:12.881Z,13.57
2022-12-22T10:08:42.070Z,17.53
2022-12-22T10:11:15.294Z,14.47
2022-12-22T10:13:43.831Z,20.47
2022-12-22T10:16:20.029Z,16.97
2022-12-22T10:18:56.461Z,15.57
2022-12-22T10:21:26.474Z,12.57
2022-12-22T10:23:57.768Z,18.13
2022-12-22T10:26:30.384Z,16.03
2022-12-22T10:29:03.215Z,14.30
2022-12-22T10:31:35.142Z,9.27
2022-12-22T10:34:12.004Z,15.67
2022-12-22T10:36:40.585Z,17.97
2022-12-22T10:39:09.513Z,11.40
2022-12-22T10:41:40.012Z,16.43
2022-12-22T10:44:09.077Z,23.43
2022-12-22T10:46:41.604Z,24.23
2022-12-22T10:49:20.101Z,23.00
2022-12-22T10:51:49.262Z,20.07
2022-12-22T10:54:30.870Z,18.83
2022-12-22T10:57:05.360Z,23.37
2022-12-22T10:59:34.067Z,28.47
2022-12-22T11:02:29.686Z,32.67
2022-12-22T11:05:02.793Z,30.07
2022-12-22T11:07:32.484Z,28.53
2022-12-22T11:10:00.949Z,29.30
2022-12-22T11:12:33.080Z,29.53
2022-12-22T11:15:02.880Z,37.70
2022-12-22T11:17:32.967Z,34.83
2022-12-22T11:20:05.367Z,32.40
2022-12-22T11:22:36.676Z,40.57
2022-12-22T11:25:12.066Z,37.27
2022-12-22T11:27:46.208Z,44.37
2022-12-22T11:30:28.895Z,38.93
2022-12-22T11:33:03.169Z,32.40
2022-12-22T11:35:40.412Z,42.20
2022-12-22T11:38:11.790Z,39.43
2022-12-22T11:40:42.753Z,40.97
2022-12-22T11:43:17.288Z,38.37
2022-12-22T11:45:49.301Z,32.77
2022-12-22T11:48:25.599Z,39.47
2022-12-22T11:50:58.746Z,35.53
2022-12-22T11:53:39.240Z,32.40
2022-12-22T11:56:11.756Z,36.77
2022-12-22T11:58:45.226Z,35.97
2022-12-22T12:01:24.173Z,33.80
2022-12-22T12:04:10.624Z,37.23
2022-12-22T12:06:49.384Z,35.00
2022-12-22T12:09:21.530Z,37.33
2022-12-22T12:11:51.966Z,43.60
2022-12-22T12:14:23.892Z,45.33
2022-12-22T12:16:53.885Z,43.40
2022-12-22T12:19:28.910Z,42.93
2022-12-22T12:21:59.436Z,45.23
2022-12-22T12:24:35.413Z,43.87
2022-12-22T12:27:05.006Z,45.33
2022-12-22T12:29:37.181Z,49.10
2022-12-22T12:32:16.765Z,47.93
2022-12-22T12:34:45.623Z,46.13
2022-12-22T12:37:16.584Z,46.77
2022-12-22T12:39:48.849Z,51.77
2022-12-22T12:42:19.805Z,52.73
2022-12-22T12:44:52.437Z,53.37
2022-12-22T12:47:24.693Z,60.83
2022-12-22T12:50:08.078Z,51.70
2022-12-22T12:52:55.126Z,51.80
2022-12-22T12:55:31.672Z,51.83
2022-12-22T12:58:01.177Z,50.97
2022-12-22T13:00:58.668Z,55.77
2022-12-22T13:06:56.950Z,49.27
2022-12-22T13:12:43.965Z,56.57
2022-12-22T13:15:27.189Z,51.33
2022-12-22T13:17:55.727Z,51.63
2022-12-22T13:20:26.919Z,54.60
2022-12-22T13:22:56.135Z,55.27
2022-12-22T13:25:27.654Z,57.83
2022-12-22T13:27:56.959Z,55.03
2022-12-22T13:30:25.406Z,53.93
2022-12-22T13:32:54.213Z,56.83
2022-12-22T13:35:32.642Z,52.87
2022-12-22T13:38:03.985Z,52.67
2022-12-22T13:40:42.028Z,53.67
2022-12-22T13:43:12.071Z,54.13
2022-12-22T13:45:40.696Z,59.07
2022-12-22T13:48:14.373Z,49.70
2022-12-22T13:50:44.466Z,48.73
2022-12-22T13:53:34.434Z,53.67
2022-12-22T13:56:07.390Z,45.13
2022-12-22T13:58:38.072Z,44.63
2022-12-22T14:01:24.554Z,46.07
2022-12-22T14:04:00.863Z,43.27
2022-12-22T14:06:30.980Z,40.83
2022-12-22T14:09:13.208Z,43.40
2022-12-22T14:11:45.666Z,42.57
2022-12-22T14:14:19.940Z,44.73
2022-12-22T14:16:48.916Z,38.10
2022-12-22T14:19:17.411Z,41.67
2022-12-22T14:21:45.801Z,41.77
2022-12-22T14:24:16.305Z,42.57
2022-12-22T14:26:44.963Z,39.40
2022-12-22T14:29:13.947Z,45.60
2022-12-22T14:31:52.905Z,40.07
2022-12-22T14:34:27.875Z,40.37
2022-12-22T14:36:58.690Z,43.80
2022-12-22T14:39:30.869Z,40.10
2022-12-22T14:42:00.437Z,44.10
2022-12-22T14:44:33.055Z,36.87
2022-12-22T14:47:15.975Z,37.77
2022-12-22T14:49:49.733Z,34.63
2022-12-22T14:52:20.720Z,36.33
2022-12-22T14:54:50.645Z,39.10
2022-12-22T14:57:19.565Z,34.77
2022-12-22T14:59:59.664Z,33.90
2022-12-22T15:02:33.519Z,39.20
2022-12-22T15:05:08.973Z,40.77
2022-12-22T15:10:37.945Z,41.67
2022-12-22T15:13:07.308Z,37.27
2022-12-22T15:15:38.625Z,38.93
2022-12-22T15:18:07.337Z,42.07
2022-12-22T15:20:39.596Z,40.37
2022-12-22T15:23:11.696Z,39.20
2022-12-22T15:25:41.564Z,43.50
2022-12-22T15:28:09.983Z,37.87
2022-12-22T15:30:38.556Z,36.47
2022-12-22T15:33:06.939Z,33.90
2022-12-22T15:35:35.612Z,34.13
2022-12-22T15:38:04.256Z,35.47
2022-12-22T15:40:32.697Z,43.47
2022-12-22T15:43:02.384Z,32.77
2022-12-22T15:45:41.027Z,35.97
2022-12-22T15:48:16.073Z,31.30
2022-12-22T15:50:44.460Z,32.97
2022-12-22T15:53:14.399Z,35.23
2022-12-22T15:55:43.215Z,27.77
2022-12-22T15:58:22.309Z,31.47
2022-12-22T16:00:50.690Z,29.63
2022-12-22T16:03:19.146Z,28.73
2022-12-22T16:05:47.539Z,30.97
2022-12-22T16:08:18.343Z,33.67
2022-12-22T16:10:46.949Z,30.33
2022-12-22T16:13:27.408Z,32.97
2022-12-22T16:15:57.403Z,35.07
2022-12-22T16:18:25.857Z,33.03
2022-12-22T16:20:54.334Z,40.83
2022-12-22T16:23:23.072Z,38.77
2022-12-22T16:25:55.441Z,38.23
2022-12-22T16:28:38.248Z,37.67
2022-12-22T16:31:08.502Z,35.40
2022-12-22T16:33:37.568Z,38.47
2022-12-22T16:36:09.343Z,36.73
2022-12-22T16:38:37.717Z,32.10
2022-12-22T16:41:09.200Z,35.53
2022-12-22T16:46:26.129Z,34.63
2022-12-22T16:48:54.737Z,32.57
2022-12-22T16:51:23.584Z,31.67
2022-12-22T16:53:51.922Z,28.63
2022-12-22T16:56:20.676Z,30.27
2022-12-22T16:58:50.360Z,27.43
2022-12-22T17:01:22.639Z,25.23
2022-12-22T17:03:52.090Z,25.60
2022-12-22T17:06:20.584Z,24.43
2022-12-22T17:08:48.885Z,26.67
2022-12-22T17:11:19.177Z,25.83
2022-12-22T17:13:47.620Z,27.73
2022-12-22T17:16:21.009Z,29.87
2022-12-22T17:18:49.516Z,31.20
2022-12-22T17:21:18.123Z,27.70
2022-12-22T17:23:47.327Z,30.20
2022-12-22T17:26:15.877Z,35.03
2022-12-22T17:28:44.276Z,33.67
2022-12-22T17:31:14.832Z,31.90
2022-12-22T17:33:44.587Z,32.30
2022-12-22T17:36:23.952Z,27.43
2022-12-22T17:38:52.309Z,29.87
2022-12-22T17:41:20.630Z,34.70
2022-12-22T17:43:49.068Z,30.33
2022-12-22T17:46:17.654Z,28.67
2022-12-22T17:48:47.528Z,32.17
2022-12-22T17:51:19.586Z,35.40
2022-12-22T17:53:48.003Z,31.67
2022-12-22T17:56:17.329Z,34.33
2022-12-22T17:58:45.871Z,39.77
2022-12-22T18:01:21.214Z,36.33
2022-12-22T18:03:51.080Z,36.70
2022-12-22T18:06:19.800Z,35.00
2022-12-22T18:08:48.122Z,38.93
2022-12-22T18:11:16.450Z,35.83
2022-12-22T18:13:44.906Z,31.57
2022-12-22T18:16:15.023Z,30.17
2022-12-22T18:18:43.766Z,31.10
2022-12-22T18:21:23.230Z,32.13
2022-12-22T18:23:51.690Z,30.53
2022-12-22T18:26:21.809Z,24.20
2022-12-22T18:28:50.363Z,27.57
2022-12-22T18:31:18.897Z,32.17
2022-12-22T18:33:47.268Z,31.37
2022-12-22T18:36:19.244Z,32.40
2022-12-22T18:38:49.095Z,40.80
2022-12-22T18:41:18.345Z,35.23
2022-12-22T18:43:46.665Z,42.67
2022-12-22T18:46:15.163Z,39.20
2022-12-22T18:48:43.956Z,40.67
2022-12-22T18:51:16.542Z,37.27
2022-12-22T18:53:44.970Z,42.77
2022-12-22T18:56:14.720Z,38.40
2022-12-22T18:58:43.219Z,42.53
2022-12-22T19:01:15.356Z,31.47
2022-12-22T19:03:45.608Z,30.70
2022-12-22T19:06:14.081Z,24.27
2022-12-22T19:08:45.956Z,25.17
2022-12-22T19:11:16.149Z,23.90
2022-12-22T19:13:44.710Z,22.93
2022-12-22T19:16:14.066Z,20.90
2022-12-22T19:18:42.442Z,18.00
2022-12-22T19:21:11.981Z,19.53
2022-12-22T19:23:40.398Z,13.63
2022-12-22T19:26:09.549Z,19.27
2022-12-22T19:28:39.890Z,14.37
2022-12-22T19:31:08.654Z,14.47
2022-12-22T19:33:37.329Z,10.07
2022-12-22T19:36:05.851Z,14.50
2022-12-22T19:38:35.577Z,13.17
2022-12-22T19:41:04.537Z,13.87
2022-12-22T19:43:33.560Z,12.30
2022-12-22T19:46:05.697Z,17.30
2022-12-22T19:48:34.018Z,12.73
2022-12-22T19:51:02.367Z,17.23
2022-12-22T19:53:30.741Z,17.97
2022-12-22T19:55:59.213Z,20.00
2022-12-22T19:58:28.256Z,18.30
2022-12-22T20:00:56.814Z,15.60
2022-12-22T20:03:27.056Z,17.37
2022-12-22T20:05:55.470Z,19.60
2022-12-22T20:08:23.812Z,16.20
2022-12-22T20:10:58.311Z,9.87
2022-12-22T20:13:26.958Z,13.83
2022-12-22T20:15:55.407Z,7.83
2022-12-22T20:18:24.065Z,8.43
2022-12-22T20:20:57.533Z,13.50
2022-12-22T20:23:26.202Z,8.87
2022-12-22T20:25:56.193Z,11.43
2022-12-22T20:28:24.874Z,18.03
2022-12-22T20:30:53.493Z,21.80
2022-12-22T20:33:22.094Z,32.17
2022-12-22T20:35:50.631Z,31.87
2022-12-22T20:38:21.020Z,34.37
2022-12-22T20:40:49.507Z,31.13
2022-12-22T20:43:18.427Z,35.60
2022-12-22T20:45:47.507Z,34.87
2022-12-22T20:48:24.125Z,32.50
2022-12-22T20:50:52.462Z,42.67
2022-12-22T20:53:22.481Z,38.50
2022-12-22T20:55:50.787Z,40.83
2022-12-22T20:58:20.104Z,41.93
2022-12-22T21:00:48.403Z,50.27
2022-12-22T21:03:16.956Z,38.83
2022-12-22T21:05:45.716Z,40.73
2022-12-22T21:08:20.215Z,37.43
2022-12-22T21:10:50.558Z,44.07
2022-12-22T21:13:18.984Z,37.30
2022-12-22T21:15:47.880Z,31.90
2022-12-22T21:18:17.497Z,30.73
2022-12-22T21:20:45.841Z,32.40
2022-12-22T21:23:16.389Z,37.27
2022-12-22T21:25:46.647Z,42.30
2022-12-22T21:28:17.521Z,39.57
2022-12-22T21:30:46.237Z,50.43
2022-12-22T21:33:14.718Z,39.57
2022-12-22T21:35:43.072Z,44.43
2022-12-22T21:38:12.361Z,35.60
2022-12-22T21:40:40.784Z,33.10
2022-12-22T21:43:10.033Z,33.07
2022-12-22T21:45:42.969Z,38.50
2022-12-22T21:48:12.843Z,33.03
2022-12-22T21:50:41.315Z,39.90
2022-12-22T21:53:09.678Z,30.97
2022-12-22T21:55:38.371Z,32.23
2022-12-22T21:58:07.572Z,39.33
2022-12-22T22:00:36.137Z,36.60
2022-12-22T22:03:06.162Z,40.57
2022-12-22T22:05:35.261Z,37.47
2022-12-22T22:08:04.002Z,36.33
2022-12-22T22:10:32.694Z,36.80
2022-12-22T22:13:01.135Z,40.13
2022-12-22T22:15:30.033Z,42.53
2022-12-22T22:18:02.934Z,44.13
2022-12-22T22:20:36.604Z,42.50
2022-12-22T22:23:05.143Z,49.53
2022-12-22T22:25:33.629Z,48.30
2022-12-22T22:28:01.871Z,38.43
2022-12-22T22:30:30.183Z,48.43
2022-12-22T22:32:58.607Z,47.70
2022-12-22T22:35:29.571Z,50.13
2022-12-22T22:37:59.251Z,43.40
2022-12-22T22:40:27.615Z,50.37
2022-12-22T22:42:56.906Z,39.47
2022-12-22T22:45:25.426Z,40.63
2022-12-22T22:47:53.850Z,30.93
2022-12-22T22:50:22.509Z,36.37
2022-12-22T22:52:50.862Z,38.50
2022-12-22T22:55:20.709Z,39.63
2022-12-22T22:57:49.093Z,40.40
2022-12-22T23:00:18.036Z,37.63
2022-12-22T23:02:46.592Z,32.23
2022-12-22T23:05:20.693Z,34.73
2022-12-22T23:07:51.708Z,34.90
2022-12-22T23:10:21.489Z,47.50
2022-12-22T23:12:49.786Z,42.17
2022-12-22T23:15:19.193Z,55.93
2022-12-22T23:17:47.793Z,47.60
2022-12-22T23:20:16.150Z,49.77
2022-12-22T23:22:44.792Z,54.03
2022-12-22T23:25:13.590Z,49.30
2022-12-22T23:27:43.257Z,48.93
2022-12-22T23:30:12.078Z,51.13
2022-12-22T23:32:40.478Z,46.23
2022-12-22T23:35:09.029Z,55.70
2022-12-22T23:37:37.386Z,59.60
2022-12-22T23:40:49.890Z,59.37
2022-12-22T23:42:58.950Z,77.57
2022-12-22T23:45:29.624Z,68.60
2022-12-22T23:47:58.087Z,79.27
2022-12-22T23:50:26.587Z,70.47
2022-12-22T23:52:55.170Z,65.63
2022-12-22T23:55:23.547Z,76.03
2022-12-22T23:57:52.301Z,72.77
